Time;durP1;ratioP1;P1;durP2;ratioP2;P2;SDS_P1;SDS_P2;PMS_P1;PMS_P2;Temp;Humidity;BMP_temperature;BMP_pressure;BME280_temperature;BME280_humidity;BME280_pressure;Samples;Min_cycle;Max_cycle;Signal;HPM_P1;HPM_P2
2023/09/15 00:01:34;;;;;;;5.60;2.13;;;13.90;99.90;;;13.27;100.00;101187.13;4188179;28;20032;-72
2023/09/15 00:03:35;;;;;;;3.58;2.22;;;13.90;99.90;;;13.29;100.00;101182.47;4183951;28;20025;-72
2023/09/15 00:05:37;;;;;;;3.22;2.03;;;13.90;99.90;;;13.32;100.00;101185.81;4196156;28;20060;-72
2023/09/15 00:07:38;;;;;;;3.58;2.22;;;13.90;99.90;;;13.34;100.00;101184.66;4201450;28;20024;-72
2023/09/15 00:09:40;;;;;;;5.03;2.67;;;13.90;99.90;;;13.32;100.00;101182.16;4201592;28;20078;-72
2023/09/15 00:11:42;;;;;;;7.30;2.88;;;13.90;99.90;;;13.37;100.00;101191.44;4200395;28;20025;-72
2023/09/15 00:13:48;;;;;;;3.67;2.10;;;13.90;99.90;;;13.40;100.00;101185.81;4200090;28;20032;-72
2023/09/15 00:15:51;;;;;;;4.75;2.78;;;14.00;99.90;;;13.40;100.00;101185.81;4184674;28;20032;-72
2023/09/15 00:17:54;;;;;;;5.25;2.53;;;14.00;99.90;;;13.35;100.00;101186.28;4183773;28;20032;-72
2023/09/15 00:19:55;;;;;;;4.22;2.60;;;14.00;99.90;;;13.32;100.00;101182.16;4186121;28;20017;-72
2023/09/15 00:21:56;;;;;;;5.15;1.83;;;14.00;99.90;;;13.37;100.00;101181.69;4183793;28;20028;-72
2023/09/15 00:23:57;;;;;;;3.70;2.20;;;13.90;99.90;;;13.35;100.00;101178.34;4187039;28;20024;-72
2023/09/15 00:26:04;;;;;;;3.38;1.90;;;13.90;99.90;;;13.35;100.00;101180.19;4195671;28;20029;-72
2023/09/15 00:28:09;;;;;;;5.13;2.03;;;13.90;99.90;;;13.30;100.00;101178.84;4184621;28;20369;-72
2023/09/15 00:30:10;;;;;;;3.10;1.80;;;13.90;99.90;;;13.29;100.00;101176.34;4196857;28;20086;-72
2023/09/15 00:32:11;;;;;;;4.30;1.73;;;13.90;99.90;;;13.19;100.00;101165.91;4187864;28;20020;-72
2023/09/15 00:34:14;;;;;;;4.03;2.10;;;13.80;99.90;;;13.19;100.00;101168.56;4188041;28;20033;-72
2023/09/15 00:36:15;;;;;;;2.60;1.67;;;13.80;99.90;;;13.14;100.00;101162.09;4190698;28;20082;-72
2023/09/15 00:38:16;;;;;;;3.13;2.08;;;13.80;99.90;;;13.07;100.00;101159.22;4199880;28;20064;-72
2023/09/15 00:40:20;;;;;;;3.10;1.90;;;13.70;99.90;;;13.06;100.00;101154.06;4187897;28;20400;-71
2023/09/15 00:42:21;;;;;;;13.32;1.98;;;13.70;99.90;;;12.99;100.00;101148.59;4187765;28;20025;-72
2023/09/15 00:44:22;;;;;;;4.30;2.20;;;13.60;99.90;;;12.96;100.00;101153.41;4196969;28;20404;-72
2023/09/15 00:46:23;;;;;;;4.10;2.22;;;13.60;99.90;;;12.89;100.00;101145.28;4190200;28;20025;-72
2023/09/15 00:48:24;;;;;;;3.45;1.70;;;13.50;99.90;;;12.87;100.00;101152.56;4198010;28;20036;-72
2023/09/15 00:50:31;;;;;;;2.17;1.98;;;13.50;99.90;;;12.82;100.00;101144.25;4192651;28;20503;-72
2023/09/15 00:52:34;;;;;;;4.25;1.88;;;13.50;99.90;;;12.82;100.00;101146.06;4195553;28;20103;-73
2023/09/15 00:54:35;;;;;;;4.47;1.90;;;13.50;99.90;;;12.77;100.00;101143.91;4189360;28;20037;-72
2023/09/15 00:56:36;;;;;;;3.90;2.13;;;13.40;99.90;;;12.78;100.00;101150.88;4186262;28;20025;-72
2023/09/15 00:58:40;;;;;;;3.10;2.17;;;13.40;99.90;;;12.76;100.00;101143.06;4195486;28;20036;-72
2023/09/15 01:00:43;;;;;;;2.67;2.35;;;13.40;99.90;;;12.72;100.00;101141.72;4187594;28;20025;-72
2023/09/15 01:02:45;;;;;;;2.70;2.00;;;13.40;99.90;;;12.73;100.00;101147.84;4200159;28;20028;-72
2023/09/15 01:04:46;;;;;;;6.68;2.00;;;13.40;99.90;;;12.70;100.00;101146.38;4186352;28;20279;-72
2023/09/15 01:06:50;;;;;;;2.83;2.20;;;13.30;99.90;;;12.69;100.00;101151.84;4193564;28;20381;-72
2023/09/15 01:08:52;;;;;;;2.70;2.08;;;13.30;99.90;;;12.66;100.00;101145.00;4197206;28;20036;-72
2023/09/15 01:10:53;;;;;;;2.80;2.17;;;13.30;99.90;;;12.64;100.00;101154.94;4187220;28;20029;-72
2023/09/15 01:12:55;;;;;;;2.35;1.80;;;13.30;99.90;;;12.60;100.00;101150.13;4189938;28;20067;-72
2023/09/15 01:14:57;;;;;;;4.22;1.95;;;13.30;99.90;;;12.56;100.00;101146.13;4193629;28;20496;-72
2023/09/15 01:17:15;;;;;;;3.33;2.28;;;13.20;99.90;;;12.54;100.00;101142.84;4202562;28;20044;-72
2023/09/15 01:19:59;;;;;;;4.35;2.28;;;13.20;99.90;;;12.50;100.00;101144.97;4186098;28;20058;-72
2023/09/15 01:22:35;;;;;;;2.70;2.20;;;13.20;99.90;;;12.47;100.00;101144.44;4187222;28;20025;-73
2023/09/15 01:24:48;;;;;;;3.50;2.28;;;13.10;99.90;;;12.42;100.00;101144.94;4187760;28;20411;-72
2023/09/15 01:27:36;;;;;;;3.60;2.38;;;13.10;99.90;;;12.39;100.00;101139.97;4203699;28;20078;-72
2023/09/15 01:29:56;;;;;;;4.45;2.10;;;13.00;99.90;;;12.35;100.00;101143.06;4195473;28;20039;-72
2023/09/15 01:31:59;;;;;;;2.42;1.80;;;13.00;99.90;;;12.33;100.00;101134.47;4188303;28;20036;-72
2023/09/15 01:34:00;;;;;;;4.28;2.33;;;13.00;99.90;;;12.30;100.00;101135.59;4185909;28;20032;-71
2023/09/15 01:36:01;;;;;;;4.15;2.60;;;13.00;99.90;;;12.30;100.00;101135.59;4189195;28;20123;-72
2023/09/15 01:38:02;;;;;;;3.83;2.45;;;13.00;99.90;;;12.28;100.00;101139.38;4194911;28;20060;-72
2023/09/15 01:40:05;;;;;;;3.88;2.40;;;12.90;99.90;;;12.25;100.00;101139.69;4189349;28;20035;-72
2023/09/15 01:42:06;;;;;;;5.30;2.30;;;12.90;99.90;;;12.20;100.00;101135.72;4186923;28;20021;-72
2023/09/15 01:44:07;;;;;;;3.03;2.20;;;12.90;99.90;;;12.18;100.00;101137.66;4193543;28;20267;-72
2023/09/15 01:46:08;;;;;;;3.55;2.13;;;12.90;99.90;;;12.17;100.00;101125.44;4203391;28;20032;-72
2023/09/15 01:48:11;;;;;;;3.10;1.98;;;12.80;99.90;;;12.16;100.00;101129.06;4194930;28;20020;-72
2023/09/15 01:50:13;;;;;;;3.83;2.38;;;12.80;99.90;;;12.15;100.00;101126.59;4198285;28;20024;-72
2023/09/15 01:52:14;;;;;;;4.90;2.17;;;12.80;99.90;;;12.14;100.00;101124.94;4194673;28;20073;-72
2023/09/15 01:54:15;;;;;;;3.40;2.53;;;12.80;99.90;;;12.12;100.00;101125.09;4185402;28;20029;-72
2023/09/15 01:56:18;;;;;;;5.10;2.85;;;12.80;99.90;;;12.14;100.00;101122.28;4199620;28;20400;-72
2023/09/15 01:58:19;;;;;;;4.75;2.53;;;12.80;99.90;;;12.10;100.00;101119.13;4193618;28;20104;-72
2023/09/15 02:00:19;;;;;;;4.57;2.60;;;12.80;99.90;;;12.10;100.00;101107.69;4192812;28;20020;-72
2023/09/15 02:02:20;;;;;;;3.22;2.35;;;12.80;99.90;;;12.11;100.00;101110.22;4185236;28;20398;-72
2023/09/15 02:04:22;;;;;;;2.97;2.33;;;12.80;99.90;;;12.07;100.00;101108.84;4200293;28;20033;-72
2023/09/15 02:06:23;;;;;;;4.57;2.33;;;12.70;99.90;;;12.04;100.00;101105.69;4198201;28;20033;-72
2023/09/15 02:08:23;;;;;;;4.35;2.45;;;12.70;99.90;;;12.03;100.00;101104.06;4191226;28;20605;-72
2023/09/15 02:10:24;;;;;;;4.80;2.42;;;12.70;99.90;;;11.98;100.00;101104.50;4186484;28;20082;-72
2023/09/15 02:12:25;;;;;;;6.72;2.88;;;12.70;99.90;;;11.96;100.00;101106.47;4198426;28;20029;-72
2023/09/15 02:14:26;;;;;;;4.72;2.35;;;12.60;99.90;;;11.93;100.00;101104.16;4185218;28;20033;-72
2023/09/15 02:16:28;;;;;;;2.90;2.05;;;12.60;99.90;;;11.91;100.00;101105.28;4194896;28;20544;-72
2023/09/15 02:18:29;;;;;;;3.58;2.85;;;12.60;99.90;;;11.89;100.00;101099.31;4188628;28;20025;-72
2023/09/15 02:20:30;;;;;;;3.88;1.98;;;12.60;99.90;;;11.89;100.00;101099.31;4186195;28;20021;-72
2023/09/15 02:22:31;;;;;;;2.38;2.00;;;12.60;99.90;;;11.88;100.00;101090.56;4186329;28;20027;-72
2023/09/15 02:24:32;;;;;;;4.65;2.05;;;12.60;99.90;;;11.87;100.00;101094.19;4186483;28;20025;-72
2023/09/15 02:26:33;;;;;;;4.78;2.33;;;12.50;99.90;;;11.84;100.00;101085.75;4186285;28;20067;-72
2023/09/15 02:28:34;;;;;;;5.40;2.70;;;12.50;99.90;;;11.82;100.00;101085.06;4199039;28;20391;-72
2023/09/15 02:30:37;;;;;;;4.53;2.33;;;12.50;99.90;;;11.82;100.00;101083.28;4201350;28;20039;-71
2023/09/15 02:32:38;;;;;;;4.63;2.45;;;12.50;99.90;;;11.80;100.00;101079.13;4194918;28;20489;-72
2023/09/15 02:34:39;;;;;;;6.47;2.47;;;12.50;99.90;;;11.80;100.00;101079.13;4186281;28;20036;-72
2023/09/15 02:36:40;;;;;;;3.42;2.35;;;12.50;99.90;;;11.78;100.00;101076.63;4202248;28;20032;-72
2023/09/15 02:38:41;;;;;;;4.75;2.38;;;12.40;99.90;;;11.77;100.00;101069.66;4200900;28;20055;-72
2023/09/15 02:40:42;;;;;;;4.30;2.90;;;12.40;99.90;;;11.72;100.00;101066.69;4186027;28;20029;-72
2023/09/15 02:42:43;;;;;;;3.40;2.40;;;12.40;99.90;;;11.71;100.00;101070.28;4185638;28;20044;-72
2023/09/15 02:44:44;;;;;;;4.68;2.80;;;12.40;99.90;;;11.70;100.00;101068.66;4185762;28;20032;-72
2023/09/15 02:46:45;;;;;;;5.13;2.92;;;12.40;99.90;;;11.68;100.00;101064.47;4200261;28;20094;-72
2023/09/15 02:48:45;;;;;;;3.80;2.50;;;12.30;99.90;;;11.66;100.00;101061.97;4193402;28;20033;-72
2023/09/15 02:50:46;;;;;;;3.53;2.13;;;12.30;99.90;;;11.60;100.00;101063.44;4194364;28;20442;-72
2023/09/15 02:52:47;;;;;;;3.33;2.25;;;12.30;99.90;;;11.60;100.00;101063.44;4202241;28;20089;-72
2023/09/15 02:54:48;;;;;;;3.35;2.17;;;12.30;99.90;;;11.61;100.00;101064.25;4201729;28;20475;-72
2023/09/15 02:56:49;;;;;;;3.92;2.45;;;12.30;99.90;;;11.57;100.00;101057.63;4201062;28;20020;-72
2023/09/15 02:58:51;;;;;;;4.95;2.30;;;12.30;99.90;;;11.55;100.00;101049.03;4192519;28;20106;-72
2023/09/15 03:00:52;;;;;;;3.90;2.38;;;12.30;99.90;;;11.57;100.00;101068.19;4201306;28;20016;-71
2023/09/15 03:02:53;;;;;;;5.68;2.55;;;12.20;99.90;;;11.56;100.00;101061.25;4197260;28;20109;-72
2023/09/15 03:04:54;;;;;;;4.55;2.45;;;12.30;99.90;;;11.57;100.00;101053.16;4184433;28;20033;-72
2023/09/15 03:06:55;;;;;;;3.70;2.35;;;12.20;99.90;;;11.58;100.00;101054.84;4193494;28;20415;-72
2023/09/15 03:08:55;;;;;;;3.70;2.60;;;12.30;99.90;;;11.59;100.00;101050.34;4190936;28;20032;-72
2023/09/15 03:10:56;;;;;;;5.18;2.95;;;12.30;99.90;;;11.62;100.00;101044.75;4185389;28;20447;-72
2023/09/15 03:12:57;;;;;;;3.55;2.45;;;12.30;99.90;;;11.63;100.00;101052.56;4185322;28;20029;-72
2023/09/15 03:14:59;;;;;;;3.60;2.50;;;12.30;99.90;;;11.62;100.00;101050.06;4185410;28;20040;-72
2023/09/15 03:16:59;;;;;;;4.35;2.80;;;12.30;99.90;;;11.59;100.00;101040.63;4194549;28;20016;-72
2023/09/15 03:19:00;;;;;;;6.18;2.80;;;12.30;99.90;;;11.55;100.00;101034.00;4187471;28;20151;-72
2023/09/15 03:21:02;;;;;;;4.07;2.38;;;12.30;99.90;;;11.58;100.00;101044.28;4185414;28;20021;-71
2023/09/15 03:23:04;;;;;;;3.75;2.95;;;12.30;99.90;;;11.54;100.00;101036.78;4185415;28;20033;-72
2023/09/15 03:25:05;;;;;;;4.20;2.60;;;12.20;99.90;;;11.56;100.00;101038.28;4185339;28;20074;-72
2023/09/15 03:27:05;;;;;;;5.35;2.70;;;12.30;99.90;;;11.54;100.00;101037.63;4185191;28;20113;-72
2023/09/15 03:29:07;;;;;;;4.00;2.85;;;12.20;99.90;;;11.53;100.00;101029.84;4185155;28;20025;-72
2023/09/15 03:31:08;;;;;;;6.68;2.97;;;12.20;99.90;;;11.54;100.00;101035.00;4190935;28;20036;-72
2023/09/15 03:33:08;;;;;;;3.72;3.10;;;12.20;99.90;;;11.50;100.00;101030.16;4185289;28;20032;-72
2023/09/15 03:35:10;;;;;;;7.03;3.15;;;12.20;99.90;;;11.49;100.00;101026.72;4187768;28;20024;-72
2023/09/15 03:37:11;;;;;;;7.53;3.85;;;12.20;99.90;;;11.49;100.00;101024.06;4185480;28;20570;-72
2023/09/15 03:39:12;;;;;;;5.07;3.20;;;12.20;99.90;;;11.47;100.00;101019.91;4185069;28;20041;-72
2023/09/15 03:41:13;;;;;;;3.55;2.38;;;12.20;99.90;;;11.48;100.00;101016.28;4185230;28;20025;-72
2023/09/15 03:43:14;;;;;;;5.47;2.75;;;12.10;99.90;;;11.45;100.00;101008.66;4191273;28;20036;-72
2023/09/15 03:45:15;;;;;;;5.30;2.65;;;12.10;99.90;;;11.44;100.00;101007.81;4187478;28;20507;-72
2023/09/15 03:47:16;;;;;;;4.28;2.97;;;12.10;99.90;;;11.39;100.00;101001.34;4185144;28;20029;-72
2023/09/15 03:49:17;;;;;;;9.23;2.83;;;12.10;99.90;;;11.42;100.00;101008.97;4194070;28;20032;-72
2023/09/15 03:51:17;;;;;;;7.97;3.30;;;12.10;99.90;;;11.38;100.00;101005.00;4185136;28;20025;-72
2023/09/15 03:53:18;;;;;;;6.03;2.78;;;12.10;99.90;;;11.38;100.00;101010.28;4183868;28;20033;-72
2023/09/15 03:55:19;;;;;;;6.03;2.97;;;12.00;99.90;;;11.37;100.00;101000.69;4200197;28;20506;-72
2023/09/15 03:57:20;;;;;;;3.25;2.42;;;12.00;99.90;;;11.37;100.00;101000.69;4184874;28;20444;-72
2023/09/15 03:59:21;;;;;;;3.65;2.30;;;12.00;99.90;;;11.35;100.00;100995.56;4185016;28;20021;-72
2023/09/15 04:01:23;;;;;;;3.63;2.70;;;12.00;99.90;;;11.31;100.00;100988.94;4199867;28;20083;-72
2023/09/15 04:03:25;;;;;;;3.53;2.30;;;12.00;99.90;;;11.31;100.00;100988.09;4184990;28;20013;-72
2023/09/15 04:05:26;;;;;;;4.53;3.00;;;12.00;99.90;;;11.32;100.00;100989.78;4185037;28;20504;-72
2023/09/15 04:07:28;;;;;;;3.63;2.42;;;12.00;99.90;;;11.30;100.00;100984.63;4187864;28;20021;-72
2023/09/15 04:09:29;;;;;;;4.95;2.55;;;12.00;99.90;;;11.27;100.00;100976.19;4203762;28;20035;-72
2023/09/15 04:11:31;;;;;;;3.83;3.15;;;12.00;99.90;;;11.28;100.00;100977.84;4187148;28;20029;-72
2023/09/15 04:13:32;;;;;;;4.65;2.97;;;12.00;99.90;;;11.27;100.00;100981.47;4197843;28;20082;-72
2023/09/15 04:15:33;;;;;;;5.25;3.30;;;12.00;99.90;;;11.22;100.00;100967.91;4204709;28;20021;-71
2023/09/15 04:17:34;;;;;;;5.03;2.67;;;11.90;99.90;;;11.24;100.00;100965.94;4204719;28;20466;-72
2023/09/15 04:19:34;;;;;;;3.88;2.90;;;11.90;99.90;;;11.22;100.00;100958.19;4203379;28;20024;-72
2023/09/15 04:21:38;;;;;;;3.03;2.72;;;11.90;99.90;;;11.22;100.00;100959.97;4204757;28;20525;-72
2023/09/15 04:23:39;;;;;;;4.00;2.83;;;11.90;99.90;;;11.21;100.00;100953.03;4204644;28;20017;-72
2023/09/15 04:25:42;;;;;;;4.97;2.63;;;11.90;99.90;;;11.21;100.00;100955.69;4203400;28;20278;-72
2023/09/15 04:27:43;;;;;;;4.68;2.80;;;11.90;99.90;;;11.18;100.00;100950.69;4203328;28;20176;-72
2023/09/15 04:30:10;;;;;;;4.15;2.92;;;11.90;99.90;;;11.22;100.00;100950.25;4203300;28;20039;-72
2023/09/15 04:32:12;;;;;;;6.68;3.15;;;11.90;99.90;;;11.22;100.00;100946.78;4201998;28;20051;-72
2023/09/15 04:34:14;;;;;;;3.15;2.55;;;11.90;99.90;;;11.27;100.00;100949.78;4196833;28;20100;-72
2023/09/15 04:36:16;;;;;;;3.63;2.70;;;11.90;99.90;;;11.27;100.00;100945.31;4190931;28;20365;-72
2023/09/15 04:38:18;;;;;;;4.15;3.08;;;12.00;99.90;;;11.30;100.00;100946.81;4199752;28;20040;-72
2023/09/15 04:40:19;;;;;;;5.18;2.60;;;12.00;99.90;;;11.33;100.00;100943.88;4187908;28;20025;-72
2023/09/15 04:42:20;;;;;;;3.33;2.70;;;12.00;99.90;;;11.36;100.00;100943.56;4187615;28;20017;-72
2023/09/15 04:44:21;;;;;;;4.78;2.70;;;12.00;99.90;;;11.38;100.00;100938.97;4195966;28;20067;-72
2023/09/15 04:46:21;;;;;;;5.13;3.08;;;12.00;99.90;;;11.39;100.00;100932.69;4204354;28;20021;-72
2023/09/15 04:48:22;;;;;;;5.72;2.72;;;12.10;99.90;;;11.42;100.00;100938.50;4204325;28;20075;-72
2023/09/15 04:50:23;;;;;;;3.78;3.20;;;12.10;99.90;;;11.46;100.00;100941.66;4197014;28;20028;-72
2023/09/15 04:52:24;;;;;;;5.88;3.40;;;12.10;99.90;;;11.48;100.00;100932.56;4186524;28;20116;-72
2023/09/15 04:54:26;;;;;;;4.70;3.30;;;12.20;99.90;;;11.54;100.00;100941.69;4198909;28;20028;-72
2023/09/15 04:56:27;;;;;;;4.93;3.88;;;12.20;99.90;;;11.58;100.00;100943.88;4202880;28;20031;-72
2023/09/15 04:58:28;;;;;;;6.35;4.47;;;12.20;99.90;;;11.62;100.00;100933.78;4204001;28;20017;-72
2023/09/15 05:00:34;;;;;;;5.20;3.92;;;12.30;99.90;;;11.67;100.00;100947.38;4194016;28;20025;-72
2023/09/15 05:02:35;;;;;;;6.03;4.20;;;12.30;99.90;;;11.73;100.00;100946.78;4186382;28;20025;-72
2023/09/15 05:04:35;;;;;;;7.32;4.65;;;12.40;99.90;;;11.76;100.00;100935.88;4200848;28;20396;-72
2023/09/15 05:06:37;;;;;;;7.43;5.13;;;12.40;99.90;;;11.81;100.00;100944.16;4187734;28;20025;-72
2023/09/15 05:08:38;;;;;;;10.18;5.95;;;12.50;99.90;;;11.87;100.00;100940.88;4195765;28;20438;-72
2023/09/15 05:10:39;;;;;;;7.10;5.80;;;12.50;99.90;;;11.92;100.00;100941.22;4187349;28;20056;-72
2023/09/15 05:12:40;;;;;;;8.65;5.72;;;12.60;99.90;;;11.97;100.00;100940.75;4186955;28;20063;-72
2023/09/15 05:14:41;;;;;;;8.55;5.70;;;12.70;99.90;;;12.02;100.00;100939.28;4187332;28;20025;-72
2023/09/15 05:16:41;;;;;;;8.10;6.40;;;12.70;99.90;;;12.11;100.00;100940.97;4187464;28;20032;-72
2023/09/15 05:18:42;;;;;;;8.02;5.63;;;12.70;99.90;;;12.14;100.00;100945.09;4197578;28;20028;-72
2023/09/15 05:20:43;;;;;;;8.77;6.30;;;12.80;99.90;;;12.23;100.00;100944.13;4185971;28;20613;-72
2023/09/15 05:22:44;;;;;;;10.90;6.25;;;12.80;99.90;;;12.27;100.00;100942.84;4191133;28;20016;-72
2023/09/15 05:24:45;;;;;;;7.85;5.72;;;12.90;99.90;;;12.34;100.00;100943.00;4195304;28;20507;-72
2023/09/15 05:26:46;;;;;;;7.57;5.68;;;13.00;99.90;;;12.39;100.00;100943.34;4187157;28;20032;-72
2023/09/15 05:28:47;;;;;;;7.32;5.05;;;13.00;99.90;;;12.38;100.00;100942.50;4200407;28;20028;-72
2023/09/15 05:30:48;;;;;;;6.90;4.90;;;13.00;99.90;;;12.36;100.00;100943.69;4199074;28;20096;-72
2023/09/15 05:32:48;;;;;;;7.68;4.60;;;13.00;99.90;;;12.36;100.00;100944.50;4187058;28;20056;-72
2023/09/15 05:34:49;;;;;;;8.98;4.88;;;13.00;99.90;;;12.33;100.00;100946.66;4196778;28;20025;-72
2023/09/15 05:36:51;;;;;;;6.18;4.25;;;13.00;99.90;;;12.33;100.00;100949.28;4171392;28;20082;-72
2023/09/15 05:38:52;;;;;;;5.57;4.30;;;13.00;99.90;;;12.31;100.00;100940.66;4186813;28;20049;-72
2023/09/15 05:40:53;;;;;;;6.30;4.10;;;13.00;99.90;;;12.34;100.00;100941.19;4193643;28;20032;-72
2023/09/15 05:42:54;;;;;;;6.38;4.57;;;13.00;99.90;;;12.36;100.00;100941.03;4196932;28;20084;-72
2023/09/15 05:44:55;;;;;;;5.63;4.18;;;13.00;99.90;;;12.39;100.00;100938.88;4202023;28;20091;-72
2023/09/15 05:46:56;;;;;;;8.77;4.75;;;13.00;99.90;;;12.40;100.00;100939.69;4186882;28;20032;-72
2023/09/15 05:48:57;;;;;;;7.95;4.57;;;13.10;99.90;;;12.40;100.00;100940.53;4186817;28;20455;-72
2023/09/15 05:50:57;;;;;;;7.88;4.68;;;13.00;99.90;;;12.39;100.00;100932.78;4186940;28;20021;-72
2023/09/15 05:52:58;;;;;;;7.60;4.18;;;13.10;99.90;;;12.44;100.00;100935.75;4186663;28;20037;-72
2023/09/15 05:54:59;;;;;;;7.45;4.03;;;13.10;99.90;;;12.49;100.00;100936.06;4188817;28;20044;-72
2023/09/15 05:57:00;;;;;;;8.00;3.78;;;13.10;99.90;;;12.53;100.00;100935.59;4194115;28;20047;-72
2023/09/15 05:59:01;;;;;;;6.85;4.75;;;13.20;99.90;;;12.54;100.00;100931.97;4186435;28;20029;-72
2023/09/15 06:01:03;;;;;;;6.63;4.40;;;13.20;99.90;;;12.60;100.00;100938.41;4186594;28;20031;-72
2023/09/15 06:03:04;;;;;;;5.43;3.88;;;13.20;99.90;;;12.57;100.00;100931.63;4185286;28;20024;-72
2023/09/15 06:05:06;;;;;;;5.72;3.90;;;13.30;99.90;;;12.60;100.00;100935.78;4186726;28;20441;-72
2023/09/15 06:07:07;;;;;;;5.07;3.38;;;13.30;99.90;;;12.62;100.00;100936.44;4186591;28;20067;-72
2023/09/15 06:09:09;;;;;;;5.85;3.90;;;13.30;99.90;;;12.62;100.00;100936.44;4186614;28;20017;-72
2023/09/15 06:11:09;;;;;;;4.47;3.35;;;13.30;99.90;;;12.63;100.00;100930.94;4201596;28;20032;-72
2023/09/15 06:13:11;;;;;;;4.75;3.60;;;13.30;99.90;;;12.68;100.00;100939.25;4186256;28;20500;-72
2023/09/15 06:15:12;;;;;;;4.88;3.53;;;13.30;99.90;;;12.70;100.00;100925.84;4198548;28;20028;-72
2023/09/15 06:17:13;;;;;;;4.70;3.47;;;13.40;99.90;;;12.74;100.00;100935.09;4189217;28;20507;-72
2023/09/15 06:19:13;;;;;;;4.75;2.70;;;13.40;99.90;;;12.76;100.00;100930.47;4201899;28;20024;-72
2023/09/15 06:21:14;;;;;;;5.88;3.60;;;13.40;99.90;;;12.77;100.00;100930.31;4196245;28;20025;-72
2023/09/15 06:23:16;;;;;;;8.23;3.58;;;13.40;99.90;;;12.78;100.00;100926.66;4188203;28;20092;-72
2023/09/15 06:25:17;;;;;;;5.60;3.55;;;13.40;99.90;;;12.81;100.00;100933.47;4198367;28;20034;-72
2023/09/15 06:27:18;;;;;;;5.57;3.13;;;13.40;99.90;;;12.81;100.00;100930.81;4200339;28;20029;-72
2023/09/15 06:29:19;;;;;;;4.30;2.63;;;13.40;99.90;;;12.80;100.00;100921.22;4189759;28;20025;-72
2023/09/15 06:31:20;;;;;;;4.70;2.88;;;13.40;99.90;;;12.80;100.00;100926.50;4188051;28;20027;-72
2023/09/15 06:33:21;;;;;;;4.20;2.85;;;13.40;99.90;;;12.82;100.00;100923.69;4196798;28;20028;-72
2023/09/15 06:35:24;;;;;;;4.32;3.20;;;13.50;99.90;;;12.84;100.00;100921.72;4198991;28;20036;-72
2023/09/15 06:37:25;;;;;;;3.83;3.07;;;13.50;99.90;;;12.81;100.00;100914.94;4191481;28;20090;-72
2023/09/15 06:39:26;;;;;;;6.93;3.17;;;13.50;99.90;;;12.85;100.00;100918.06;4186037;28;20021;-72
2023/09/15 06:41:27;;;;;;;7.13;3.08;;;13.50;99.90;;;12.86;100.00;100909.13;4186001;28;20089;-72
2023/09/15 06:43:28;;;;;;;5.10;3.45;;;13.50;99.90;;;12.89;100.00;100914.09;4186607;28;20025;-72
2023/09/15 06:45:29;;;;;;;6.68;3.25;;;13.50;99.90;;;12.90;100.00;100906.00;4202521;28;20024;-72
2023/09/15 06:47:30;;;;;;;4.55;3.42;;;13.60;99.90;;;12.94;100.00;100909.94;4192439;28;20055;-72
2023/09/15 06:49:32;;;;;;;6.93;3.03;;;13.60;99.90;;;13.00;100.00;100905.78;4184703;28;20107;-72
2023/09/15 06:51:32;;;;;;;7.32;3.58;;;13.70;99.90;;;13.05;100.00;100912.25;4201262;28;20021;-72
2023/09/15 06:53:33;;;;;;;4.45;3.10;;;13.70;99.90;;;13.08;100.00;100908.50;4202428;28;20036;-72
2023/09/15 06:55:34;;;;;;;6.38;3.33;;;13.70;99.90;;;13.11;100.00;100911.59;4202266;28;20442;-72
2023/09/15 06:57:35;;;;;;;5.65;2.88;;;13.70;99.90;;;13.15;100.00;100912.09;4190302;28;20100;-72
2023/09/15 06:59:36;;;;;;;4.65;3.10;;;13.80;99.90;;;13.18;100.00;100917.88;4185578;28;20024;-72
2023/09/15 07:01:37;;;;;;;4.88;2.92;;;13.80;99.90;;;13.21;100.00;100912.25;4185707;28;20036;-72
2023/09/15 07:03:39;;;;;;;3.58;2.75;;;13.80;99.90;;;13.25;100.00;100913.59;4185672;28;20048;-72
2023/09/15 07:05:40;;;;;;;6.13;3.40;;;13.90;99.90;;;13.30;100.00;100913.91;4185589;28;20116;-72
2023/09/15 07:07:41;;;;;;;4.05;3.30;;;13.90;99.90;;;13.35;100.00;100915.22;4197990;28;20025;-72
2023/09/15 07:09:41;;;;;;;4.43;3.03;;;14.00;99.90;;;13.43;100.00;100917.84;4185893;28;20032;-72
2023/09/15 07:11:42;;;;;;;6.38;3.85;;;14.00;99.90;;;13.47;100.00;100919.16;4185714;28;20025;-72
2023/09/15 07:13:43;;;;;;;3.85;3.15;;;14.10;99.90;;;13.52;100.00;100914.16;4185274;28;20032;-72
2023/09/15 07:15:47;;;;;;;4.72;3.00;;;14.20;99.90;;;13.61;100.00;100918.44;4198685;28;20083;-72
2023/09/15 07:17:48;;;;;;;6.50;2.72;;;14.20;99.90;;;13.66;100.00;100911.63;4194773;28;20036;-73
2023/09/15 07:19:49;;;;;;;5.13;3.25;;;14.30;99.90;;;13.70;100.00;100909.47;4193255;28;20024;-72
2023/09/15 07:21:50;;;;;;;6.07;3.72;;;14.40;99.90;;;13.77;100.00;100913.91;4190051;28;20032;-73
2023/09/15 07:23:50;;;;;;;6.55;4.28;;;14.40;99.90;;;13.84;100.00;100914.03;4185273;28;20488;-72
2023/09/15 07:25:51;;;;;;;7.00;3.80;;;14.50;99.90;;;13.94;100.00;100921.78;4185503;28;20033;-72
2023/09/15 07:27:52;;;;;;;8.30;4.43;;;14.50;99.90;;;13.99;100.00;100916.78;4199395;28;20464;-72
2023/09/15 07:29:53;;;;;;;7.30;4.32;;;14.60;99.90;;;14.05;100.00;100921.38;4201980;28;20080;-72
2023/09/15 07:31:57;;;;;;;8.65;5.30;;;14.70;99.90;;;14.11;100.00;100913.56;4201912;28;20025;-72
2023/09/15 07:33:58;;;;;;;;;;;14.80;99.90;;;14.17;100.00;100917.34;4196904;28;20037;-72
2023/09/15 07:36:01;;;;;;;8.05;3.90;;;14.80;99.90;;;14.22;100.00;100913.16;4189640;28;19912;-72
2023/09/15 07:38:05;;;;;;;9.88;4.10;;;14.90;99.90;;;14.30;100.00;100913.13;4205807;28;20051;-72
2023/09/15 07:40:07;;;;;;;11.85;5.20;;;15.00;99.90;;;14.34;100.00;100908.31;4187095;28;20029;-73
2023/09/15 07:42:08;;;;;;;7.10;4.57;;;15.00;99.90;;;14.47;100.00;100910.38;4183083;28;20018;-73
2023/09/15 07:44:09;;;;;;;7.65;4.68;;;15.10;99.90;;;14.54;100.00;100908.69;4192381;28;20029;-72
2023/09/15 07:46:12;;;;;;;7.75;4.13;;;15.20;99.90;;;14.60;100.00;100906.16;4184127;28;20037;-72
2023/09/15 07:48:13;;;;;;;7.90;4.55;;;15.30;99.90;;;14.68;100.00;100915.84;4183526;28;20520;-73
2023/09/15 07:50:17;;;;;;;6.78;4.30;;;15.30;99.90;;;14.74;100.00;100899.22;4187552;28;20031;-72
2023/09/15 07:52:18;;;;;;;6.65;4.47;;;15.40;99.90;;;14.84;100.00;100907.78;4191420;28;20111;-73
2023/09/15 07:54:19;;;;;;;5.93;3.65;;;15.50;99.90;;;14.92;100.00;100905.03;4189163;28;20029;-73
2023/09/15 07:56:21;;;;;;;5.60;3.60;;;15.60;99.90;;;14.98;100.00;100906.13;4185170;28;20040;-73
2023/09/15 07:58:21;;;;;;;6.45;3.65;;;15.60;99.90;;;15.08;100.00;100902.22;4187748;28;20024;-73
2023/09/15 08:00:23;;;;;;;4.95;3.35;;;15.70;99.90;;;15.14;100.00;100906.78;4194609;28;20036;-72
2023/09/15 08:02:26;;;;;;;4.15;3.08;;;15.80;99.90;;;15.22;100.00;100909.38;4190306;28;20044;-73
2023/09/15 08:04:28;;;;;;;4.25;3.03;;;15.90;99.90;;;15.25;100.00;100898.41;4197568;28;20024;-72
2023/09/15 08:06:29;;;;;;;4.63;3.47;;;15.90;99.90;;;15.32;100.00;100898.50;4186255;28;20025;-72
2023/09/15 08:08:30;;;;;;;6.70;4.07;;;16.00;99.90;;;15.41;100.00;100897.41;4192753;28;20420;-72
2023/09/15 08:10:31;;;;;;;6.45;3.78;;;16.10;99.90;;;15.54;100.00;100904.75;4183299;28;20029;-72
2023/09/15 08:12:32;;;;;;;4.93;3.40;;;16.20;99.90;;;15.63;100.00;100896.50;4198212;28;20028;-72
2023/09/15 08:14:33;;;;;;;5.30;3.28;;;16.30;99.90;;;15.69;100.00;100894.91;4201217;28;20039;-72
2023/09/15 08:16:34;;;;;;;4.28;2.88;;;16.40;99.90;;;15.84;100.00;100898.38;4199078;28;20535;-72
2023/09/15 08:18:35;;;;;;;6.55;3.45;;;16.50;99.90;;;15.91;100.00;100901.97;4201475;28;20078;-72
2023/09/15 08:20:36;;;;;;;5.60;3.00;;;16.50;99.90;;;16.03;100.00;100893.31;4187435;28;20029;-73
2023/09/15 08:22:40;;;;;;;4.07;2.67;;;16.70;99.90;;;16.14;100.00;100889.31;4183606;28;20106;-73